HRHO2: North Canadian River

Data processed at Sat Mar 10 2018 23:24


All information presented herein is the property of the government of the United States of America and may be revised or deleted at any time without prior notice.
Dissemination of this information without the expressed written consent of the Public Affairs Office, Tulsa District U.S. Army Corps of Engineers is strictly prohibited.
These data are gathered electronically and, as presented, have not undergone any form of quality control. These data are not guaranteed to be valid or correct.
Go to home page.
Go to station list.

Upstream stations:

Downstream station:
Previous Day
Next Day
Current Day
    
SHEF ID:       HRHO2     North Canadian River near Harrah
STATION TYPE:  

                STAGE  RIV-FLOW  WTR-TEMP   DIS-OXY        PH   CONDUCT  BAT-LOAD
                   ft       cfs         F      mg/l        su   umho/cm      volt
              Ccp-Rev   Ccp-Rev   Ccp-Rev   Ccp-Rev   Ccp-Rev   Ccp-Rev   Ccp-Rev
(US/Central)
03/08 00:00      4.80       230     49.73      8.83      9.49       879     12.54
03/08 01:00      4.79       227     48.96      8.77      9.58       880     12.54
03/08 02:00      4.77       222     48.20      8.87      9.63       878     12.48
03/08 03:00      4.76       220     47.48      8.79      9.64       868     12.42
03/08 04:00      4.75       217     46.71      8.73      9.65       851     12.42
03/08 05:00      4.73       212     45.95      8.87      9.67       837     12.42
03/08 06:00      4.71       207     45.28      9.03      9.70       832     12.36
03/08 07:00      4.70       205     44.67      9.38      9.69       832     12.36
03/08 08:00      4.62       186     44.28      9.40      9.76       832     12.42
03/08 09:00      4.59       179     44.64      9.63      9.70       832     12.71
03/08 10:00      4.58       177     45.66      9.84      9.70       833     13.18
03/08 11:00      4.54       168     47.48      9.59      9.69       834     13.65
03/08 12:00      4.52       164     49.51     10.57      9.71       836     14.12
03/08 13:00      4.52       164     51.67     10.67      9.65       838     14.06
03/08 14:00      4.55       171     53.26     10.40      9.61       838     13.88
03/08 15:00      4.57       175     55.42     10.24      9.60       840     13.88
03/08 16:00      4.56       173     56.84      9.92      9.64       842     13.77
03/08 17:00      4.53       166     57.18      9.58      9.62       845     13.71
03/08 18:00      4.51       162     56.53      9.90      9.58       847     13.42
03/08 19:00      4.50       160     55.81      9.53      9.62       851     13.12
03/08 20:00      4.50       160     55.08      9.69      9.65       854     12.71
03/08 21:00      4.47       154     54.32      9.23      9.64       858     12.65
03/08 22:00      4.43       146     53.49      9.07      9.60       862     12.65
03/08 23:00      4.42       144     52.68      8.85      9.59       867     12.60